KIAG/IAG METAR and TAF weather

Enter ICAO airport designator
Station Type Date Time Source
KIAG METAR 2019/10/15 02:53 UTC NOAA

KIAG 150253Z 28004KT 10SM CLR 04/M01 A3008 RMK AO2 SLP197 T00391006 $


Station Type Date Time Source
KIAG Decoded METAR 2019/10/15 02:53 UTC NOAA

NIAGARA FALLS INTERNATIONAL AIRPORT, NY, United States (KIAG) 43-07N 078-56W 182M
Oct 14, 2019 - 10:53 PM EDT / 2019.10.15 0253 UTC
Wind: from the W (280 degrees) at 5 MPH (4 KT):0
Visibility: 10 mile(s):0
Sky conditions: clear
Temperature: 39.0 F (3.9 C)
Dew Point: 30.9 F (-0.6 C)
Relative Humidity: 72%
Pressure (altimeter): 30.08 in. Hg (1018 hPa)
ob: KIAG 150253Z 28004KT 10SM CLR 04/M01 A3008 RMK AO2 SLP197 T00391006
cycle: 3

Station Type Date Time Source
KIAG TAF 2019/10/15 03:58 UTC NOAA

TAF
AMD KIAG 150257Z 1503/1524 27008KT P6SM SCT060
FM150900 23006KT P6SM SCT060
FM151400 20006KT P6SM SCT040 SCT250
FM152100 13006KT P6SM FEW100 BKN250

Example: see airport list